CPA185 YSSY-VHHH
Flight info
| Callsign | CPA185 |
|---|---|
| Flight time | N/A |
| Altitude | 30000 |
| Route | WOL2/34L RIC H530 OKVAR/N0499F320 H530 SURVO R340 AVNOL/N0493F340 R340 AMN A461 NITIP/N0486F360 A461 ZAM A583 SABNO V542 BETTY |
| Aircraft | A339/H-SADE1E2E3GHIJ3J5M1P2RWXY/LB2D1 |
Departure
| Time | N/A |
|---|---|
| Airport | Sydney Kingsford Smith International Airport (YSSY) |
Arrival
| Time | 2026-05-04 01:41 |
|---|---|
| Airport | Hong Kong International Airport (VHHH) |
| Time | Latitude | Longitude | Altitude | Speed | Heading |
|---|---|---|---|---|---|
| 2026-05-03 20:15 | -16.57381 | 137.48897 | 29963 ft | 485 kts | 324° |
| 2026-05-03 20:15 | -16.51707 | 137.45023 | 29961 ft | 485 kts | 324° |
| 2026-05-03 20:16 | -16.46064 | 137.41174 | 29958 ft | 486 kts | 324° |
| 2026-05-03 20:16 | -16.40399 | 137.37311 | 29959 ft | 486 kts | 324° |
| 2026-05-03 20:17 | -16.34748 | 137.33462 | 29959 ft | 486 kts | 324° |
| 2026-05-03 20:17 | -16.29054 | 137.29585 | 29956 ft | 486 kts | 324° |
| 2026-05-03 20:18 | -16.23389 | 137.25731 | 29956 ft | 487 kts | 324° |
| 2026-05-03 20:18 | -16.17710 | 137.21869 | 29955 ft | 487 kts | 324° |
| 2026-05-03 20:19 | -16.12006 | 137.17996 | 29955 ft | 488 kts | 324° |
| 2026-05-03 20:19 | -16.06325 | 137.14139 | 29954 ft | 489 kts | 324° |
| 2026-05-03 20:20 | -16.00649 | 137.10286 | 29954 ft | 489 kts | 324° |
| 2026-05-03 20:20 | -15.94916 | 137.06400 | 29954 ft | 489 kts | 324° |
| 2026-05-03 20:21 | -15.89234 | 137.02550 | 29956 ft | 489 kts | 324° |
| 2026-05-03 20:21 | -15.83544 | 136.98697 | 29958 ft | 489 kts | 324° |
| 2026-05-03 20:22 | -15.77814 | 136.94820 | 29958 ft | 490 kts | 324° |
| 2026-05-03 20:22 | -15.72129 | 136.90976 | 29958 ft | 489 kts | 324° |
| 2026-05-03 20:23 | -15.66388 | 136.87096 | 29957 ft | 489 kts | 324° |
| 2026-05-03 20:23 | -15.60713 | 136.83264 | 29956 ft | 489 kts | 324° |
| 2026-05-03 20:24 | -15.54986 | 136.79396 | 29955 ft | 489 kts | 324° |
| 2026-05-03 20:24 | -15.49262 | 136.75534 | 29954 ft | 490 kts | 324° |
| 2026-05-03 20:25 | -15.43571 | 136.71693 | 29954 ft | 489 kts | 324° |
| 2026-05-03 20:25 | -15.37848 | 136.67836 | 29954 ft | 490 kts | 324° |
| 2026-05-03 20:26 | -15.32295 | 136.63754 | 29954 ft | 489 kts | 321° |
| 2026-05-03 20:26 | -15.26786 | 136.59582 | 29954 ft | 489 kts | 321° |
| 2026-05-03 20:27 | -15.21296 | 136.55418 | 29954 ft | 489 kts | 321° |
| 2026-05-03 20:27 | -15.15819 | 136.51265 | 29954 ft | 490 kts | 321° |
| 2026-05-03 20:28 | -15.10333 | 136.47107 | 29954 ft | 490 kts | 321° |
| 2026-05-03 20:28 | -15.04808 | 136.42921 | 29954 ft | 490 kts | 321° |
| 2026-05-03 20:29 | -14.99329 | 136.38774 | 29951 ft | 490 kts | 321° |
| 2026-05-03 20:29 | -14.93812 | 136.34599 | 29955 ft | 489 kts | 322° |
| 2026-05-03 20:30 | -14.88310 | 136.30440 | 29954 ft | 490 kts | 322° |
| 2026-05-03 20:30 | -14.82807 | 136.26282 | 29950 ft | 490 kts | 322° |
| 2026-05-03 20:31 | -14.77303 | 136.22125 | 29952 ft | 489 kts | 322° |
| 2026-05-03 20:31 | -14.71786 | 136.17961 | 29952 ft | 490 kts | 322° |
| 2026-05-03 20:32 | -14.66295 | 136.13820 | 29947 ft | 490 kts | 322° |
| 2026-05-03 20:32 | -14.60789 | 136.09671 | 29953 ft | 491 kts | 322° |
| 2026-05-03 20:33 | -14.55259 | 136.05505 | 29948 ft | 490 kts | 322° |
| 2026-05-03 20:33 | -14.49743 | 136.01353 | 29951 ft | 491 kts | 322° |
| 2026-05-03 20:34 | -14.44211 | 135.97189 | 29953 ft | 491 kts | 322° |
| 2026-05-03 20:34 | -14.38702 | 135.93050 | 29952 ft | 491 kts | 322° |
| 2026-05-03 20:35 | -14.33166 | 135.88888 | 29952 ft | 492 kts | 322° |
| 2026-05-03 20:35 | -14.27629 | 135.84731 | 29955 ft | 492 kts | 322° |
| 2026-05-03 20:36 | -14.22118 | 135.80594 | 29953 ft | 492 kts | 322° |
| 2026-05-03 20:36 | -14.16566 | 135.76430 | 29951 ft | 492 kts | 322° |
| 2026-05-03 20:37 | -14.11042 | 135.72288 | 29954 ft | 492 kts | 322° |
| 2026-05-03 20:37 | -14.05501 | 135.68133 | 29953 ft | 493 kts | 322° |
| 2026-05-03 20:38 | -13.99948 | 135.63972 | 29956 ft | 492 kts | 322° |
| 2026-05-03 20:38 | -13.94379 | 135.59801 | 29959 ft | 492 kts | 322° |
| 2026-05-03 20:39 | -13.88827 | 135.55661 | 29960 ft | 493 kts | 322° |
| 2026-05-03 20:39 | -13.83292 | 135.51537 | 29962 ft | 493 kts | 322° |
| 2026-05-03 20:40 | -13.77738 | 135.47394 | 29962 ft | 492 kts | 322° |
| 2026-05-03 20:40 | -13.72161 | 135.43234 | 29963 ft | 493 kts | 322° |
| 2026-05-03 20:41 | -13.66602 | 135.39088 | 29963 ft | 493 kts | 322° |
| 2026-05-03 20:41 | -13.61057 | 135.34956 | 29964 ft | 493 kts | 322° |
| 2026-05-03 20:42 | -13.55503 | 135.30820 | 29965 ft | 493 kts | 322° |
| 2026-05-03 20:42 | -13.49925 | 135.26668 | 29967 ft | 493 kts | 322° |
| 2026-05-03 20:43 | -13.44341 | 135.22514 | 29968 ft | 493 kts | 322° |
| 2026-05-03 20:43 | -13.38770 | 135.18370 | 29966 ft | 493 kts | 322° |
| 2026-05-03 20:44 | -13.33189 | 135.14223 | 29965 ft | 493 kts | 322° |
| 2026-05-03 20:44 | -13.27605 | 135.10074 | 29962 ft | 493 kts | 322° |
| 2026-05-03 20:45 | -13.22039 | 135.05939 | 29960 ft | 493 kts | 322° |
| 2026-05-03 20:45 | -13.16491 | 135.01822 | 29960 ft | 494 kts | 322° |
| 2026-05-03 20:46 | -13.10885 | 134.97665 | 29959 ft | 494 kts | 322° |
| 2026-05-03 20:46 | -13.05307 | 134.93532 | 29959 ft | 494 kts | 322° |
| 2026-05-03 20:47 | -12.99714 | 134.89388 | 29957 ft | 494 kts | 322° |
| 2026-05-03 20:47 | -12.94167 | 134.85283 | 29955 ft | 493 kts | 322° |
| 2026-05-03 20:48 | -12.88575 | 134.81146 | 29957 ft | 494 kts | 322° |
| 2026-05-03 20:48 | -12.83020 | 134.77039 | 29954 ft | 493 kts | 323° |
| 2026-05-03 20:49 | -12.77396 | 134.72884 | 29948 ft | 494 kts | 323° |
| 2026-05-03 20:49 | -12.71834 | 134.68776 | 29952 ft | 493 kts | 323° |
| 2026-05-03 20:50 | -12.66258 | 134.64661 | 29947 ft | 493 kts | 323° |
| 2026-05-03 20:50 | -12.60679 | 134.60545 | 29942 ft | 494 kts | 323° |
| 2026-05-03 20:51 | -12.55089 | 134.56422 | 29940 ft | 494 kts | 323° |
| 2026-05-03 20:51 | -12.49485 | 134.52295 | 29939 ft | 494 kts | 323° |
| 2026-05-03 20:52 | -12.43894 | 134.48175 | 29936 ft | 494 kts | 323° |
| 2026-05-03 20:52 | -12.38318 | 134.44070 | 29931 ft | 495 kts | 323° |
| 2026-05-03 20:53 | -12.32708 | 134.39943 | 29930 ft | 495 kts | 323° |
| 2026-05-03 20:53 | -12.27121 | 134.35832 | 29927 ft | 494 kts | 323° |
| 2026-05-03 20:54 | -12.21556 | 134.31735 | 29923 ft | 495 kts | 323° |
| 2026-05-03 20:54 | -12.13153 | 134.25558 | 29917 ft | 495 kts | 323° |
| 2026-05-03 20:55 | -12.07557 | 134.21448 | 29917 ft | 495 kts | 323° |
| 2026-05-03 20:55 | -12.01914 | 134.17303 | 29914 ft | 495 kts | 323° |
| 2026-05-03 20:56 | -11.96287 | 134.13171 | 29913 ft | 496 kts | 323° |
| 2026-05-03 20:56 | -11.90705 | 134.09091 | 29914 ft | 495 kts | 323° |
| 2026-05-03 20:57 | -11.85099 | 134.04997 | 29914 ft | 495 kts | 323° |
| 2026-05-03 20:57 | -11.79470 | 134.00880 | 29913 ft | 496 kts | 323° |
| 2026-05-03 20:58 | -11.73857 | 133.96777 | 29913 ft | 496 kts | 323° |
| 2026-05-03 20:58 | -11.68263 | 133.92690 | 29912 ft | 497 kts | 323° |
| 2026-05-03 20:59 | -11.62636 | 133.88577 | 29911 ft | 496 kts | 323° |
| 2026-05-03 20:59 | -11.57044 | 133.84492 | 29914 ft | 497 kts | 323° |
| 2026-05-03 21:00 | -11.52341 | 133.81058 | 29913 ft | 497 kts | 324° |
| 2026-05-03 21:00 | -11.45789 | 133.76279 | 29913 ft | 497 kts | 323° |
| 2026-05-03 21:01 | -11.40163 | 133.72176 | 29913 ft | 497 kts | 323° |
| 2026-05-03 21:01 | -11.34512 | 133.68056 | 29913 ft | 497 kts | 324° |
| 2026-05-03 21:02 | -11.28920 | 133.63983 | 29914 ft | 497 kts | 324° |
| 2026-05-03 21:02 | -11.23260 | 133.59860 | 29916 ft | 497 kts | 324° |
| 2026-05-03 21:03 | -11.17633 | 133.55763 | 29915 ft | 498 kts | 324° |
| 2026-05-03 21:03 | -11.11983 | 133.51653 | 29916 ft | 498 kts | 324° |
| 2026-05-03 21:04 | -11.06339 | 133.47549 | 29915 ft | 498 kts | 324° |
| 2026-05-03 21:04 | -11.00718 | 133.43465 | 29915 ft | 498 kts | 324° |
| 2026-05-03 21:05 | -10.95065 | 133.39359 | 29914 ft | 498 kts | 324° |
| 2026-05-03 21:05 | -10.89385 | 133.35233 | 29911 ft | 499 kts | 324° |
| 2026-05-03 21:06 | -10.83739 | 133.31134 | 29915 ft | 498 kts | 324° |
| 2026-05-03 21:06 | -10.78096 | 133.27042 | 29913 ft | 499 kts | 324° |
| 2026-05-03 21:07 | -10.72446 | 133.22943 | 29913 ft | 499 kts | 324° |
| 2026-05-03 21:07 | -10.66789 | 133.18843 | 29911 ft | 499 kts | 324° |
| 2026-05-03 21:08 | -10.61135 | 133.14748 | 29912 ft | 499 kts | 324° |
| 2026-05-03 21:08 | -10.55467 | 133.10645 | 29912 ft | 499 kts | 324° |
| 2026-05-03 21:09 | -10.49798 | 133.06541 | 29911 ft | 499 kts | 324° |
| 2026-05-03 21:09 | -10.44153 | 133.02458 | 29909 ft | 499 kts | 324° |
| 2026-05-03 21:10 | -10.38473 | 132.98349 | 29907 ft | 500 kts | 325° |
| 2026-05-03 21:10 | -10.32782 | 132.94238 | 29911 ft | 501 kts | 325° |
| 2026-05-03 21:11 | -10.27126 | 132.90153 | 29909 ft | 502 kts | 325° |
| 2026-05-03 21:11 | -10.21500 | 132.86095 | 29907 ft | 502 kts | 325° |
| 2026-05-03 21:12 | -10.15801 | 132.81984 | 29909 ft | 501 kts | 325° |
| 2026-05-03 21:12 | -10.10129 | 132.77893 | 29906 ft | 502 kts | 325° |
| 2026-05-03 21:13 | -10.04395 | 132.73759 | 29909 ft | 503 kts | 325° |
| 2026-05-03 21:13 | -9.98706 | 132.69659 | 29905 ft | 503 kts | 325° |
| 2026-05-03 21:14 | -9.93002 | 132.65549 | 29904 ft | 503 kts | 325° |
| 2026-05-03 21:14 | -9.87265 | 132.61418 | 29905 ft | 504 kts | 325° |
| 2026-05-03 21:15 | -9.81576 | 132.57321 | 29903 ft | 504 kts | 325° |
| 2026-05-03 21:15 | -9.75827 | 132.53185 | 29903 ft | 505 kts | 325° |
| 2026-05-03 21:16 | -9.70077 | 132.49049 | 29903 ft | 506 kts | 325° |
| 2026-05-03 21:16 | -9.64341 | 132.44925 | 29901 ft | 506 kts | 325° |
| 2026-05-03 21:17 | -9.59545 | 132.41478 | 29900 ft | 507 kts | 325° |
| 2026-05-03 21:17 | -9.52846 | 132.36667 | 29896 ft | 506 kts | 325° |
| 2026-05-03 21:18 | -9.47064 | 132.32513 | 29899 ft | 508 kts | 326° |
| 2026-05-03 21:18 | -9.41325 | 132.28394 | 29899 ft | 508 kts | 325° |
| 2026-05-03 21:19 | -9.35548 | 132.24249 | 29896 ft | 509 kts | 326° |
| 2026-05-03 21:19 | -9.29769 | 132.20103 | 29895 ft | 510 kts | 326° |
| 2026-05-03 21:20 | -9.23940 | 132.15929 | 29893 ft | 511 kts | 325° |
| 2026-05-03 21:20 | -9.18154 | 132.11783 | 29892 ft | 511 kts | 326° |
| 2026-05-03 21:21 | -9.12363 | 132.07636 | 29895 ft | 511 kts | 326° |
| 2026-05-03 21:21 | -9.06514 | 132.03447 | 29891 ft | 512 kts | 326° |
| 2026-05-03 21:22 | -9.00724 | 131.99303 | 29893 ft | 512 kts | 326° |
| 2026-05-03 21:22 | -8.94895 | 131.95129 | 29892 ft | 512 kts | 325° |
| 2026-05-03 21:23 | -8.89070 | 131.90958 | 29891 ft | 512 kts | 325° |
| 2026-05-03 21:23 | -8.83258 | 131.86798 | 29891 ft | 512 kts | 325° |
| 2026-05-03 21:24 | -8.77413 | 131.82631 | 29891 ft | 512 kts | 325° |
| 2026-05-03 21:24 | -8.71596 | 131.78487 | 29888 ft | 513 kts | 325° |
| 2026-05-03 21:25 | -8.65769 | 131.74330 | 29888 ft | 512 kts | 325° |
| 2026-05-03 21:25 | -8.59930 | 131.70165 | 29887 ft | 512 kts | 325° |
| 2026-05-03 21:26 | -8.54124 | 131.66022 | 29887 ft | 512 kts | 325° |
| 2026-05-03 21:26 | -8.48266 | 131.61844 | 29885 ft | 512 kts | 325° |
| 2026-05-03 21:27 | -8.42456 | 131.57701 | 29886 ft | 512 kts | 325° |
| 2026-05-03 21:27 | -8.36629 | 131.53549 | 29885 ft | 513 kts | 325° |
| 2026-05-03 21:28 | -8.30772 | 131.49374 | 29886 ft | 513 kts | 325° |
| 2026-05-03 21:28 | -8.24974 | 131.45244 | 29886 ft | 513 kts | 325° |
| 2026-05-03 21:29 | -8.19090 | 131.41052 | 29880 ft | 514 kts | 325° |
| 2026-05-03 21:29 | -8.13252 | 131.36893 | 29886 ft | 514 kts | 325° |
| 2026-05-03 21:30 | -8.07406 | 131.32732 | 29888 ft | 514 kts | 325° |
| 2026-05-03 21:30 | -8.01541 | 131.28569 | 29889 ft | 515 kts | 325° |
| 2026-05-03 21:31 | -7.95704 | 131.24422 | 29889 ft | 515 kts | 325° |
| 2026-05-03 21:31 | -7.89840 | 131.20253 | 29887 ft | 515 kts | 325° |
| 2026-05-03 21:32 | -7.83951 | 131.16064 | 29889 ft | 516 kts | 325° |
| 2026-05-03 21:32 | -7.78089 | 131.11894 | 29889 ft | 516 kts | 325° |
| 2026-05-03 21:33 | -7.72219 | 131.07721 | 29886 ft | 516 kts | 325° |
| 2026-05-03 21:33 | -7.66351 | 131.03551 | 29886 ft | 517 kts | 325° |
| 2026-05-03 21:34 | -7.60469 | 130.99371 | 29888 ft | 517 kts | 325° |
| 2026-05-03 21:34 | -7.54575 | 130.95186 | 29888 ft | 517 kts | 326° |
| 2026-05-03 21:35 | -7.48707 | 130.91020 | 29886 ft | 517 kts | 325° |
| 2026-05-03 21:35 | -7.42795 | 130.86824 | 29890 ft | 518 kts | 325° |
| 2026-05-03 21:36 | -7.36910 | 130.82649 | 29884 ft | 518 kts | 325° |
| 2026-05-03 21:36 | -7.30994 | 130.78453 | 29885 ft | 519 kts | 325° |
| 2026-05-03 21:37 | -7.25083 | 130.74262 | 29882 ft | 520 kts | 325° |
| 2026-05-03 21:37 | -7.19182 | 130.70079 | 29883 ft | 520 kts | 325° |
| 2026-05-03 21:38 | -7.13230 | 130.65861 | 29884 ft | 520 kts | 325° |
| 2026-05-03 21:38 | -7.07329 | 130.61682 | 29883 ft | 520 kts | 325° |
| 2026-05-03 21:39 | -7.01385 | 130.57474 | 29883 ft | 521 kts | 325° |
| 2026-05-03 21:39 | -6.95462 | 130.53281 | 29880 ft | 521 kts | 325° |
| 2026-05-03 21:40 | -6.89515 | 130.49072 | 29880 ft | 521 kts | 325° |
| 2026-05-03 21:40 | -6.83558 | 130.44858 | 29882 ft | 522 kts | 325° |
| 2026-05-03 21:41 | -6.77623 | 130.40660 | 29879 ft | 522 kts | 325° |
| 2026-05-03 21:41 | -6.71682 | 130.36459 | 29880 ft | 522 kts | 325° |
| 2026-05-03 21:42 | -6.65716 | 130.32242 | 29880 ft | 522 kts | 326° |
| 2026-05-03 21:42 | -6.59769 | 130.28040 | 29878 ft | 523 kts | 326° |
| 2026-05-03 21:43 | -6.53789 | 130.23817 | 29878 ft | 523 kts | 325° |
| 2026-05-03 21:43 | -6.47836 | 130.19614 | 29876 ft | 523 kts | 325° |
| 2026-05-03 21:44 | -6.41879 | 130.15408 | 29877 ft | 524 kts | 325° |
| 2026-05-03 21:44 | -6.35923 | 130.11204 | 29877 ft | 524 kts | 325° |
| 2026-05-03 21:45 | -6.29920 | 130.06969 | 29877 ft | 525 kts | 325° |
| 2026-05-03 21:45 | -6.23956 | 130.02763 | 29874 ft | 525 kts | 325° |
| 2026-05-03 21:46 | -6.17985 | 129.98553 | 29875 ft | 524 kts | 325° |
| 2026-05-03 21:46 | -6.12011 | 129.94341 | 29874 ft | 525 kts | 325° |
| 2026-05-03 21:47 | -6.05987 | 129.90096 | 29873 ft | 525 kts | 325° |
| 2026-05-03 21:47 | -6.00024 | 129.85895 | 29871 ft | 525 kts | 325° |
| 2026-05-03 21:48 | -5.94042 | 129.81680 | 29872 ft | 525 kts | 325° |
| 2026-05-03 21:48 | -5.88069 | 129.77475 | 29871 ft | 525 kts | 325° |
| 2026-05-03 21:49 | -5.82076 | 129.73254 | 29871 ft | 525 kts | 325° |
| 2026-05-03 21:49 | -5.76093 | 129.69045 | 29871 ft | 525 kts | 325° |
| 2026-05-03 21:50 | -5.70108 | 129.64833 | 29871 ft | 525 kts | 325° |
| 2026-05-03 21:50 | -5.64086 | 129.60597 | 29871 ft | 526 kts | 325° |
| 2026-05-03 21:51 | -5.58094 | 129.56383 | 29871 ft | 525 kts | 325° |
| 2026-05-03 21:51 | -5.52099 | 129.52168 | 29871 ft | 525 kts | 325° |
| 2026-05-03 21:52 | -5.46117 | 129.47963 | 29871 ft | 525 kts | 325° |
| 2026-05-03 21:52 | -5.40139 | 129.43764 | 29871 ft | 525 kts | 326° |
| 2026-05-03 21:53 | -5.34143 | 129.39551 | 29871 ft | 525 kts | 326° |
| 2026-05-03 21:53 | -5.28156 | 129.35345 | 29871 ft | 525 kts | 326° |
| 2026-05-03 21:54 | -5.22199 | 129.31163 | 29871 ft | 525 kts | 326° |
| 2026-05-03 21:54 | -5.16173 | 129.26933 | 29871 ft | 525 kts | 326° |
| 2026-05-03 21:55 | -5.10206 | 129.22743 | 29871 ft | 525 kts | 326° |
| 2026-05-03 21:55 | -5.04225 | 129.18547 | 29871 ft | 525 kts | 326° |
| 2026-05-03 21:56 | -4.98231 | 129.14342 | 29871 ft | 525 kts | 326° |
| 2026-05-03 21:56 | -4.92245 | 129.10144 | 29871 ft | 524 kts | 326° |
| 2026-05-03 21:57 | -4.86232 | 129.05927 | 29871 ft | 525 kts | 326° |
| 2026-05-03 21:57 | -4.80250 | 129.01733 | 29871 ft | 525 kts | 326° |
| 2026-05-03 21:58 | -4.74289 | 128.97556 | 29871 ft | 525 kts | 326° |
| 2026-05-03 21:58 | -4.68281 | 128.93344 | 29870 ft | 525 kts | 326° |
| 2026-05-03 21:59 | -4.62303 | 128.89157 | 29870 ft | 525 kts | 326° |
| 2026-05-03 21:59 | -4.56285 | 128.84941 | 29870 ft | 525 kts | 326° |
| 2026-05-03 22:00 | -4.50306 | 128.80753 | 29870 ft | 525 kts | 326° |
| 2026-05-03 22:00 | -4.44304 | 128.76550 | 29871 ft | 525 kts | 326° |
| 2026-05-03 22:01 | -4.38308 | 128.72353 | 29868 ft | 526 kts | 326° |
| 2026-05-03 22:01 | -4.32324 | 128.68166 | 29871 ft | 525 kts | 326° |
| 2026-05-03 22:02 | -4.26314 | 128.63959 | 29869 ft | 526 kts | 326° |
| 2026-05-03 22:02 | -4.20319 | 128.59763 | 29871 ft | 526 kts | 326° |
| 2026-05-03 22:03 | -4.14287 | 128.55545 | 29869 ft | 526 kts | 326° |
| 2026-05-03 22:03 | -4.08306 | 128.51361 | 29870 ft | 527 kts | 326° |
| 2026-05-03 22:04 | -4.02273 | 128.47141 | 29871 ft | 527 kts | 326° |
| 2026-05-03 22:04 | -3.96264 | 128.42938 | 29868 ft | 527 kts | 326° |
| 2026-05-03 22:05 | -3.90227 | 128.38718 | 29871 ft | 527 kts | 326° |
| 2026-05-03 22:05 | -3.84212 | 128.34511 | 29875 ft | 527 kts | 326° |
| 2026-05-03 22:06 | -3.78224 | 128.30325 | 29881 ft | 527 kts | 326° |
| 2026-05-03 22:06 | -3.72206 | 128.26114 | 29882 ft | 527 kts | 326° |
| 2026-05-03 22:07 | -3.66162 | 128.21886 | 29886 ft | 527 kts | 326° |
| 2026-05-03 22:07 | -3.60056 | 128.17795 | 29887 ft | 527 kts | 330° |
| 2026-05-03 22:08 | -3.53746 | 128.14081 | 29894 ft | 527 kts | 331° |
| 2026-05-03 22:08 | -3.47419 | 128.10390 | 29889 ft | 526 kts | 331° |
| 2026-05-03 22:09 | -3.41088 | 128.06689 | 29894 ft | 527 kts | 331° |
| 2026-05-03 22:10 | -3.31571 | 128.01120 | 29915 ft | 527 kts | 330° |
| 2026-05-03 22:10 | -3.25253 | 127.97420 | 29936 ft | 527 kts | 331° |
| 2026-05-03 22:11 | -3.18930 | 127.93717 | 29934 ft | 527 kts | 331° |
| 2026-05-03 22:11 | -3.12597 | 127.90011 | 29912 ft | 526 kts | 331° |
| 2026-05-03 22:12 | -3.06225 | 127.86281 | 29893 ft | 527 kts | 331° |
| 2026-05-03 22:12 | -2.99911 | 127.82587 | 29880 ft | 526 kts | 331° |
| 2026-05-03 22:13 | -2.93567 | 127.78873 | 29875 ft | 527 kts | 331° |
| 2026-05-03 22:13 | -2.87260 | 127.75184 | 29875 ft | 527 kts | 331° |
| 2026-05-03 22:14 | -2.80922 | 127.71477 | 29878 ft | 526 kts | 330° |
| 2026-05-03 22:14 | -2.74562 | 127.67757 | 29875 ft | 526 kts | 330° |
| 2026-05-03 22:15 | -2.68243 | 127.64059 | 29875 ft | 526 kts | 330° |
| 2026-05-03 22:15 | -2.61942 | 127.60375 | 29873 ft | 526 kts | 331° |
| 2026-05-03 22:16 | -2.55582 | 127.56657 | 29872 ft | 526 kts | 331° |
| 2026-05-03 22:16 | -2.49254 | 127.52957 | 29871 ft | 526 kts | 330° |
| 2026-05-03 22:17 | -2.42947 | 127.49270 | 29871 ft | 526 kts | 330° |
| 2026-05-03 22:17 | -2.36600 | 127.45560 | 29871 ft | 526 kts | 331° |
| 2026-05-03 22:18 | -2.30292 | 127.41872 | 29871 ft | 526 kts | 331° |
| 2026-05-03 22:18 | -2.23944 | 127.38162 | 29871 ft | 526 kts | 331° |
| 2026-05-03 22:19 | -2.17645 | 127.34483 | 29871 ft | 526 kts | 331° |
| 2026-05-03 22:19 | -2.11293 | 127.30771 | 29871 ft | 527 kts | 331° |
| 2026-05-03 22:20 | -2.04966 | 127.27074 | 29872 ft | 527 kts | 331° |
| 2026-05-03 22:20 | -1.98629 | 127.23373 | 29872 ft | 527 kts | 331° |
| 2026-05-03 22:21 | -1.92308 | 127.19680 | 29872 ft | 527 kts | 331° |
| 2026-05-03 22:21 | -1.85954 | 127.15970 | 29873 ft | 527 kts | 331° |
| 2026-05-03 22:22 | -1.79639 | 127.12281 | 29873 ft | 527 kts | 331° |
| 2026-05-03 22:22 | -1.73281 | 127.08569 | 29874 ft | 526 kts | 331° |
| 2026-05-03 22:23 | -1.66944 | 127.04868 | 29874 ft | 527 kts | 331° |
| 2026-05-03 22:23 | -1.60635 | 127.01185 | 29874 ft | 526 kts | 331° |
| 2026-05-03 22:24 | -1.54266 | 126.97465 | 29875 ft | 526 kts | 331° |
| 2026-05-03 22:24 | -1.47965 | 126.93788 | 29875 ft | 526 kts | 331° |
| 2026-05-03 22:25 | -1.41621 | 126.90083 | 29875 ft | 526 kts | 331° |
| 2026-05-03 22:25 | -1.35302 | 126.86395 | 29874 ft | 526 kts | 331° |
| 2026-05-03 22:26 | -1.28958 | 126.82693 | 29875 ft | 526 kts | 331° |
| 2026-05-03 22:26 | -1.22641 | 126.79005 | 29874 ft | 526 kts | 331° |
| 2026-05-03 22:27 | -1.16295 | 126.75302 | 29874 ft | 525 kts | 331° |
| 2026-05-03 22:27 | -1.09990 | 126.71622 | 29874 ft | 526 kts | 331° |
| 2026-05-03 22:28 | -1.03683 | 126.67941 | 29873 ft | 526 kts | 331° |
| 2026-05-03 22:28 | -0.97337 | 126.64239 | 29873 ft | 525 kts | 331° |
| 2026-05-03 22:29 | -0.91044 | 126.60567 | 29873 ft | 525 kts | 331° |
| 2026-05-03 22:29 | -0.84699 | 126.56864 | 29872 ft | 525 kts | 331° |
| 2026-05-03 22:30 | -0.78364 | 126.53168 | 29872 ft | 526 kts | 331° |
| 2026-05-03 22:30 | -0.72061 | 126.49490 | 29872 ft | 526 kts | 330° |
| 2026-05-03 22:31 | -0.65709 | 126.45785 | 29872 ft | 526 kts | 331° |
| 2026-05-03 22:31 | -0.59409 | 126.42109 | 29872 ft | 526 kts | 331° |
| 2026-05-03 22:32 | -0.53081 | 126.38417 | 29872 ft | 526 kts | 331° |
| 2026-05-03 22:32 | -0.46762 | 126.34731 | 29871 ft | 526 kts | 331° |
| 2026-05-03 22:33 | -0.40416 | 126.31029 | 29872 ft | 526 kts | 331° |
| 2026-05-03 22:33 | -0.34122 | 126.27357 | 29872 ft | 525 kts | 331° |
| 2026-05-03 22:34 | -0.27779 | 126.23656 | 29872 ft | 526 kts | 331° |
| 2026-05-03 22:34 | -0.21486 | 126.19985 | 29872 ft | 526 kts | 331° |
| 2026-05-03 22:35 | -0.15117 | 126.16270 | 29872 ft | 526 kts | 331° |
| 2026-05-03 22:35 | -0.08795 | 126.12582 | 29872 ft | 526 kts | 331° |
| 2026-05-03 22:36 | -0.02488 | 126.08903 | 29872 ft | 525 kts | 331° |
| 2026-05-03 22:36 | 0.03853 | 126.05205 | 29871 ft | 525 kts | 331° |
| 2026-05-03 22:37 | 0.10158 | 126.01527 | 29871 ft | 526 kts | 331° |
| 2026-05-03 22:37 | 0.16491 | 125.97832 | 29871 ft | 526 kts | 331° |
| 2026-05-03 22:38 | 0.22827 | 125.94137 | 29871 ft | 526 kts | 331° |
| 2026-05-03 22:38 | 0.29126 | 125.90462 | 29870 ft | 526 kts | 331° |
| 2026-05-03 22:39 | 0.35480 | 125.86755 | 29870 ft | 527 kts | 331° |
| 2026-05-03 22:39 | 0.41822 | 125.83057 | 29870 ft | 527 kts | 331° |
| 2026-05-03 22:40 | 0.48164 | 125.79356 | 29870 ft | 527 kts | 330° |
| 2026-05-03 22:40 | 0.54469 | 125.75678 | 29870 ft | 527 kts | 331° |
| 2026-05-03 22:41 | 0.60822 | 125.71971 | 29869 ft | 527 kts | 331° |
| 2026-05-03 22:41 | 0.67183 | 125.68261 | 29869 ft | 527 kts | 330° |
| 2026-05-03 22:42 | 0.73490 | 125.64581 | 29869 ft | 527 kts | 330° |
| 2026-05-03 22:42 | 0.79816 | 125.60889 | 29869 ft | 527 kts | 330° |
| 2026-05-03 22:43 | 0.86190 | 125.57171 | 29869 ft | 527 kts | 330° |
| 2026-05-03 22:43 | 0.92498 | 125.53489 | 29869 ft | 527 kts | 330° |
| 2026-05-03 22:44 | 0.98838 | 125.49789 | 29869 ft | 527 kts | 330° |
| 2026-05-03 22:44 | 1.05198 | 125.46078 | 29870 ft | 527 kts | 330° |
| 2026-05-03 22:45 | 1.11547 | 125.42372 | 29867 ft | 527 kts | 330° |
| 2026-05-03 22:45 | 1.17860 | 125.38688 | 29869 ft | 526 kts | 330° |
| 2026-05-03 22:46 | 1.24198 | 125.34988 | 29870 ft | 526 kts | 330° |
| 2026-05-03 22:46 | 1.30537 | 125.31288 | 29870 ft | 526 kts | 330° |
| 2026-05-03 22:47 | 1.36855 | 125.27600 | 29871 ft | 526 kts | 330° |
| 2026-05-03 22:47 | 1.43208 | 125.23891 | 29875 ft | 527 kts | 330° |
| 2026-05-03 22:48 | 1.49549 | 125.20189 | 29884 ft | 526 kts | 330° |
| 2026-05-03 22:48 | 1.55862 | 125.16503 | 29895 ft | 526 kts | 330° |
| 2026-05-03 22:49 | 1.62202 | 125.12801 | 29902 ft | 526 kts | 330° |
| 2026-05-03 22:49 | 1.68527 | 125.09106 | 29903 ft | 526 kts | 330° |
| 2026-05-03 22:50 | 1.74821 | 125.05430 | 29898 ft | 526 kts | 330° |
| 2026-05-03 22:50 | 1.81184 | 125.01712 | 29889 ft | 526 kts | 330° |
| 2026-05-03 22:51 | 1.87482 | 124.98031 | 29887 ft | 526 kts | 330° |
| 2026-05-03 22:51 | 1.93809 | 124.94332 | 29882 ft | 526 kts | 330° |
| 2026-05-03 22:52 | 2.00114 | 124.90642 | 29875 ft | 526 kts | 330° |
| 2026-05-03 22:52 | 2.06478 | 124.86916 | 29873 ft | 526 kts | 330° |
| 2026-05-03 22:53 | 2.12796 | 124.83181 | 29871 ft | 526 kts | 330° |
| 2026-05-03 22:53 | 2.19089 | 124.79447 | 29872 ft | 526 kts | 330° |
| 2026-05-03 22:54 | 2.25405 | 124.75698 | 29872 ft | 526 kts | 330° |
| 2026-05-03 22:54 | 2.31703 | 124.71960 | 29872 ft | 526 kts | 330° |
| 2026-05-03 22:55 | 2.38016 | 124.68211 | 29872 ft | 527 kts | 330° |
| 2026-05-03 22:55 | 2.44311 | 124.64474 | 29872 ft | 527 kts | 330° |
| 2026-05-03 22:56 | 2.50611 | 124.60733 | 29872 ft | 527 kts | 330° |
| 2026-05-03 22:56 | 2.56960 | 124.56963 | 29872 ft | 527 kts | 330° |
| 2026-05-03 22:57 | 2.63254 | 124.53224 | 29872 ft | 527 kts | 330° |
| 2026-05-03 22:57 | 2.69560 | 124.49479 | 29872 ft | 528 kts | 330° |
| 2026-05-03 22:58 | 2.75900 | 124.45712 | 29872 ft | 528 kts | 330° |
| 2026-05-03 22:58 | 2.82202 | 124.41968 | 29872 ft | 528 kts | 330° |
| 2026-05-03 22:59 | 2.88532 | 124.38206 | 29872 ft | 528 kts | 330° |
| 2026-05-03 22:59 | 2.94860 | 124.34446 | 29871 ft | 528 kts | 330° |
| 2026-05-03 23:00 | 3.01193 | 124.30682 | 29872 ft | 528 kts | 330° |
| 2026-05-03 23:00 | 3.07515 | 124.26924 | 29872 ft | 529 kts | 330° |
| 2026-05-03 23:01 | 3.13868 | 124.23146 | 29872 ft | 529 kts | 330° |
| 2026-05-03 23:01 | 3.20165 | 124.19402 | 29872 ft | 529 kts | 330° |
| 2026-05-03 23:02 | 3.26511 | 124.15627 | 29872 ft | 528 kts | 330° |
| 2026-05-03 23:02 | 3.32846 | 124.11859 | 29872 ft | 529 kts | 330° |
| 2026-05-03 23:03 | 3.39161 | 124.08102 | 29872 ft | 529 kts | 330° |
| 2026-05-03 23:03 | 3.45520 | 124.04318 | 29872 ft | 529 kts | 330° |
| 2026-05-03 23:04 | 3.51851 | 124.00550 | 29872 ft | 529 kts | 330° |
| 2026-05-03 23:04 | 3.58183 | 123.96781 | 29872 ft | 529 kts | 330° |
| 2026-05-03 23:05 | 3.64503 | 123.93018 | 29872 ft | 529 kts | 330° |
| 2026-05-03 23:05 | 3.70828 | 123.89251 | 29872 ft | 529 kts | 330° |
| 2026-05-03 23:06 | 3.77182 | 123.85465 | 29872 ft | 529 kts | 330° |
| 2026-05-03 23:06 | 3.83503 | 123.81699 | 29872 ft | 529 kts | 330° |
| 2026-05-03 23:07 | 3.89814 | 123.77935 | 29872 ft | 529 kts | 330° |
| 2026-05-03 23:07 | 3.96178 | 123.74136 | 29872 ft | 529 kts | 330° |
| 2026-05-03 23:08 | 4.02510 | 123.70400 | 29873 ft | 528 kts | 331° |
| 2026-05-03 23:08 | 4.08926 | 123.66788 | 29872 ft | 529 kts | 332° |
| 2026-05-03 23:09 | 4.15326 | 123.63195 | 29872 ft | 528 kts | 332° |
| 2026-05-03 23:09 | 4.21767 | 123.59562 | 29874 ft | 528 kts | 332° |
| 2026-05-03 23:10 | 4.28161 | 123.55946 | 29873 ft | 528 kts | 332° |
| 2026-05-03 23:10 | 4.34593 | 123.52306 | 29873 ft | 528 kts | 332° |
| 2026-05-03 23:11 | 4.40968 | 123.48696 | 29873 ft | 528 kts | 332° |
| 2026-05-03 23:11 | 4.47375 | 123.45067 | 29872 ft | 528 kts | 332° |
| 2026-05-03 23:12 | 4.53754 | 123.41454 | 29874 ft | 528 kts | 332° |
| 2026-05-03 23:12 | 4.60187 | 123.37808 | 29873 ft | 527 kts | 332° |
| 2026-05-03 23:13 | 4.66575 | 123.34189 | 29872 ft | 527 kts | 332° |
| 2026-05-03 23:13 | 4.72969 | 123.30564 | 29874 ft | 527 kts | 332° |
| 2026-05-03 23:14 | 4.79329 | 123.26959 | 29872 ft | 526 kts | 332° |
| 2026-05-03 23:14 | 4.85737 | 123.23325 | 29873 ft | 526 kts | 332° |
| 2026-05-03 23:15 | 4.92127 | 123.19700 | 29874 ft | 526 kts | 332° |
| 2026-05-03 23:15 | 4.98464 | 123.16105 | 29872 ft | 526 kts | 332° |
| 2026-05-03 23:16 | 5.04837 | 123.12489 | 29872 ft | 526 kts | 332° |
| 2026-05-03 23:16 | 5.11246 | 123.08852 | 29871 ft | 526 kts | 332° |
| 2026-05-03 23:17 | 5.17618 | 123.05234 | 29871 ft | 526 kts | 332° |
| 2026-05-03 23:17 | 5.23998 | 123.01611 | 29871 ft | 526 kts | 332° |
| 2026-05-03 23:18 | 5.30350 | 122.98003 | 29871 ft | 526 kts | 332° |
| 2026-05-03 23:18 | 5.36730 | 122.94379 | 29870 ft | 526 kts | 332° |
| 2026-05-03 23:19 | 5.43118 | 122.90748 | 29870 ft | 527 kts | 332° |
| 2026-05-03 23:19 | 5.49493 | 122.87125 | 29870 ft | 527 kts | 332° |
| 2026-05-03 23:20 | 5.55903 | 122.83481 | 29870 ft | 527 kts | 332° |
| 2026-05-03 23:20 | 5.62305 | 122.79839 | 29871 ft | 527 kts | 332° |
| 2026-05-03 23:21 | 5.68695 | 122.76205 | 29871 ft | 528 kts | 332° |
| 2026-05-03 23:21 | 5.75093 | 122.72563 | 29872 ft | 528 kts | 331° |
| 2026-05-03 23:22 | 5.84663 | 122.67117 | 29871 ft | 528 kts | 331° |
| 2026-05-03 23:22 | 5.91067 | 122.63470 | 29872 ft | 528 kts | 331° |
| 2026-05-03 23:23 | 5.97465 | 122.59826 | 29871 ft | 528 kts | 331° |
| 2026-05-03 23:23 | 6.03896 | 122.56161 | 29872 ft | 528 kts | 331° |
| 2026-05-03 23:24 | 6.10303 | 122.52510 | 29875 ft | 528 kts | 331° |
| 2026-05-03 23:24 | 6.16709 | 122.48858 | 29874 ft | 529 kts | 331° |
| 2026-05-03 23:25 | 6.23108 | 122.45209 | 29876 ft | 529 kts | 331° |
| 2026-05-03 23:25 | 6.29528 | 122.41545 | 29876 ft | 529 kts | 331° |
| 2026-05-03 23:26 | 6.35914 | 122.37900 | 29876 ft | 529 kts | 331° |
| 2026-05-03 23:26 | 6.42319 | 122.34242 | 29882 ft | 529 kts | 331° |
| 2026-05-03 23:27 | 6.48727 | 122.30579 | 29880 ft | 529 kts | 331° |
| 2026-05-03 23:27 | 6.55133 | 122.26917 | 29882 ft | 529 kts | 331° |
| 2026-05-03 23:28 | 6.61537 | 122.23267 | 29885 ft | 528 kts | 331° |
| 2026-05-03 23:28 | 6.67931 | 122.19619 | 29888 ft | 528 kts | 331° |
| 2026-05-03 23:29 | 6.74320 | 122.15967 | 29890 ft | 528 kts | 331° |
| 2026-05-03 23:29 | 6.80736 | 122.12295 | 29895 ft | 528 kts | 331° |
| 2026-05-03 23:30 | 6.87112 | 122.08642 | 29908 ft | 527 kts | 330° |
| 2026-05-03 23:30 | 6.93528 | 122.05066 | 29919 ft | 527 kts | 334° |
| 2026-05-03 23:31 | 7.00121 | 122.01806 | 29930 ft | 527 kts | 334° |
| 2026-05-03 23:31 | 7.06723 | 121.98573 | 29939 ft | 527 kts | 334° |
| 2026-05-03 23:32 | 7.13347 | 121.95319 | 29935 ft | 527 kts | 334° |
| 2026-05-03 23:32 | 7.19940 | 121.92072 | 29925 ft | 527 kts | 334° |
| 2026-05-03 23:33 | 7.26554 | 121.88810 | 29917 ft | 527 kts | 334° |
| 2026-05-03 23:33 | 7.32976 | 121.85651 | 29906 ft | 527 kts | 334° |
| 2026-05-03 23:34 | 7.39597 | 121.82406 | 29897 ft | 527 kts | 334° |
| 2026-05-03 23:34 | 7.46197 | 121.79165 | 29889 ft | 527 kts | 334° |
| 2026-05-03 23:35 | 7.52784 | 121.75925 | 29884 ft | 527 kts | 334° |
| 2026-05-03 23:35 | 7.59392 | 121.72671 | 29880 ft | 527 kts | 334° |
| 2026-05-03 23:36 | 7.65988 | 121.69424 | 29880 ft | 527 kts | 334° |
| 2026-05-03 23:36 | 7.72584 | 121.66174 | 29878 ft | 527 kts | 334° |
| 2026-05-03 23:37 | 7.79180 | 121.62921 | 29877 ft | 527 kts | 334° |
| 2026-05-03 23:37 | 7.85740 | 121.59688 | 29876 ft | 527 kts | 335° |
| 2026-05-03 23:38 | 7.92335 | 121.56435 | 29875 ft | 526 kts | 334° |
| 2026-05-03 23:38 | 7.98941 | 121.53175 | 29875 ft | 526 kts | 335° |
| 2026-05-03 23:39 | 8.05542 | 121.49917 | 29873 ft | 526 kts | 334° |
| 2026-05-03 23:39 | 8.12096 | 121.46680 | 29872 ft | 526 kts | 335° |
| 2026-05-03 23:40 | 8.18686 | 121.43426 | 29869 ft | 526 kts | 335° |
| 2026-05-03 23:40 | 8.25261 | 121.40176 | 29870 ft | 526 kts | 335° |
| 2026-05-03 23:41 | 8.31840 | 121.36924 | 29871 ft | 526 kts | 334° |
| 2026-05-03 23:41 | 8.38432 | 121.33665 | 29869 ft | 526 kts | 334° |
| 2026-05-03 23:42 | 8.45020 | 121.30405 | 29871 ft | 526 kts | 334° |
| 2026-05-03 23:42 | 8.51564 | 121.27167 | 29869 ft | 525 kts | 334° |
| 2026-05-03 23:43 | 8.58159 | 121.23902 | 29871 ft | 525 kts | 334° |
| 2026-05-03 23:43 | 8.64711 | 121.20657 | 29867 ft | 525 kts | 334° |
| 2026-05-03 23:44 | 8.71326 | 121.17379 | 29872 ft | 525 kts | 334° |
| 2026-05-03 23:44 | 8.77868 | 121.14136 | 29869 ft | 525 kts | 335° |
| 2026-05-03 23:45 | 8.84447 | 121.10874 | 29868 ft | 525 kts | 334° |
| 2026-05-03 23:45 | 8.91012 | 121.07617 | 29869 ft | 525 kts | 334° |
| 2026-05-03 23:46 | 8.97565 | 121.04365 | 29868 ft | 525 kts | 335° |
| 2026-05-03 23:46 | 9.04160 | 121.01090 | 29871 ft | 525 kts | 334° |
| 2026-05-03 23:47 | 9.10714 | 120.97835 | 29871 ft | 525 kts | 335° |
| 2026-05-03 23:47 | 9.17288 | 120.94568 | 29873 ft | 525 kts | 334° |
| 2026-05-03 23:48 | 9.23848 | 120.91307 | 29872 ft | 525 kts | 334° |
| 2026-05-03 23:48 | 9.30395 | 120.88051 | 29874 ft | 525 kts | 334° |
| 2026-05-03 23:49 | 9.36989 | 120.84769 | 29874 ft | 525 kts | 334° |
| 2026-05-03 23:49 | 9.43524 | 120.81516 | 29875 ft | 525 kts | 334° |
| 2026-05-03 23:50 | 9.50109 | 120.78236 | 29876 ft | 525 kts | 334° |
| 2026-05-03 23:50 | 9.56658 | 120.74971 | 29874 ft | 525 kts | 334° |
| 2026-05-03 23:51 | 9.63242 | 120.71686 | 29875 ft | 525 kts | 334° |
| 2026-05-03 23:51 | 9.69776 | 120.68422 | 29874 ft | 526 kts | 334° |
| 2026-05-03 23:52 | 9.76363 | 120.65138 | 29874 ft | 525 kts | 334° |
| 2026-05-03 23:52 | 9.82911 | 120.61878 | 29873 ft | 526 kts | 334° |
| 2026-05-03 23:53 | 9.89505 | 120.58589 | 29876 ft | 526 kts | 334° |
| 2026-05-03 23:53 | 9.96096 | 120.55297 | 29874 ft | 526 kts | 334° |
| 2026-05-03 23:54 | 10.02634 | 120.52026 | 29873 ft | 526 kts | 334° |
| 2026-05-03 23:54 | 10.09247 | 120.48717 | 29872 ft | 526 kts | 334° |
| 2026-05-03 23:55 | 10.15825 | 120.45420 | 29872 ft | 526 kts | 334° |
| 2026-05-03 23:55 | 10.22362 | 120.42144 | 29872 ft | 527 kts | 334° |
| 2026-05-03 23:56 | 10.28973 | 120.38835 | 29871 ft | 526 kts | 334° |
| 2026-05-03 23:56 | 10.35535 | 120.35544 | 29871 ft | 526 kts | 334° |
| 2026-05-03 23:57 | 10.42091 | 120.32249 | 29871 ft | 526 kts | 334° |
| 2026-05-03 23:57 | 10.48657 | 120.28946 | 29872 ft | 526 kts | 334° |
| 2026-05-03 23:58 | 10.55233 | 120.25635 | 29872 ft | 525 kts | 334° |
| 2026-05-03 23:58 | 10.61775 | 120.22340 | 29872 ft | 525 kts | 334° |
| 2026-05-03 23:59 | 10.68360 | 120.19022 | 29872 ft | 525 kts | 334° |
| 2026-05-03 23:59 | 10.74904 | 120.15722 | 29872 ft | 525 kts | 334° |
| 2026-05-04 00:00 | 10.81445 | 120.12421 | 29872 ft | 525 kts | 334° |
| 2026-05-04 00:00 | 10.87992 | 120.09116 | 29873 ft | 525 kts | 334° |
| 2026-05-04 00:01 | 10.94525 | 120.05812 | 29873 ft | 525 kts | 334° |
| 2026-05-04 00:01 | 11.01079 | 120.02497 | 29873 ft | 524 kts | 334° |
| 2026-05-04 00:02 | 11.07639 | 119.99186 | 29873 ft | 524 kts | 334° |
| 2026-05-04 00:02 | 11.14167 | 119.95888 | 29874 ft | 524 kts | 334° |
| 2026-05-04 00:03 | 11.20685 | 119.92588 | 29872 ft | 524 kts | 334° |
| 2026-05-04 00:03 | 11.27220 | 119.89275 | 29873 ft | 524 kts | 334° |
| 2026-05-04 00:04 | 11.33753 | 119.85960 | 29872 ft | 524 kts | 334° |
| 2026-05-04 00:04 | 11.40315 | 119.82630 | 29873 ft | 524 kts | 334° |
| 2026-05-04 00:05 | 11.46847 | 119.79311 | 29873 ft | 524 kts | 334° |
| 2026-05-04 00:05 | 11.53363 | 119.76000 | 29873 ft | 524 kts | 334° |
| 2026-05-04 00:06 | 11.59923 | 119.72662 | 29874 ft | 524 kts | 334° |
| 2026-05-04 00:06 | 11.66429 | 119.69347 | 29873 ft | 524 kts | 334° |
| 2026-05-04 00:07 | 11.73000 | 119.66009 | 29872 ft | 524 kts | 334° |
| 2026-05-04 00:07 | 11.79525 | 119.62711 | 29874 ft | 525 kts | 334° |
| 2026-05-04 00:08 | 11.86103 | 119.59380 | 29873 ft | 525 kts | 334° |
| 2026-05-04 00:08 | 11.92654 | 119.56057 | 29873 ft | 524 kts | 334° |
| 2026-05-04 00:09 | 11.99175 | 119.52743 | 29872 ft | 525 kts | 334° |
| 2026-05-04 00:09 | 12.05738 | 119.49408 | 29873 ft | 525 kts | 334° |
| 2026-05-04 00:10 | 12.12269 | 119.46087 | 29875 ft | 524 kts | 334° |
| 2026-05-04 00:10 | 12.18797 | 119.42764 | 29874 ft | 525 kts | 334° |
| 2026-05-04 00:11 | 12.25326 | 119.39441 | 29873 ft | 524 kts | 334° |
| 2026-05-04 00:11 | 12.31907 | 119.36087 | 29874 ft | 525 kts | 334° |
| 2026-05-04 00:12 | 12.38449 | 119.32753 | 29873 ft | 525 kts | 334° |
| 2026-05-04 00:12 | 12.44947 | 119.29438 | 29873 ft | 525 kts | 334° |
| 2026-05-04 00:13 | 12.51492 | 119.26099 | 29874 ft | 525 kts | 334° |
| 2026-05-04 00:13 | 12.58037 | 119.22755 | 29872 ft | 525 kts | 334° |
| 2026-05-04 00:14 | 12.64589 | 119.19408 | 29874 ft | 524 kts | 334° |
| 2026-05-04 00:14 | 12.71137 | 119.16060 | 29874 ft | 525 kts | 334° |
| 2026-05-04 00:15 | 12.77658 | 119.12723 | 29873 ft | 525 kts | 334° |
| 2026-05-04 00:15 | 12.84225 | 119.09360 | 29873 ft | 525 kts | 334° |
| 2026-05-04 00:16 | 12.90757 | 119.06012 | 29873 ft | 525 kts | 334° |
| 2026-05-04 00:16 | 12.97276 | 119.02666 | 29872 ft | 525 kts | 334° |
| 2026-05-04 00:17 | 13.03815 | 118.99314 | 29873 ft | 525 kts | 334° |
| 2026-05-04 00:17 | 13.10382 | 118.95956 | 29870 ft | 525 kts | 334° |
| 2026-05-04 00:18 | 13.16911 | 118.92609 | 29872 ft | 525 kts | 334° |
| 2026-05-04 00:18 | 13.23463 | 118.89246 | 29871 ft | 525 kts | 334° |
| 2026-05-04 00:19 | 13.29971 | 118.85900 | 29869 ft | 525 kts | 334° |
| 2026-05-04 00:19 | 13.36546 | 118.82518 | 29871 ft | 525 kts | 334° |
| 2026-05-04 00:20 | 13.43076 | 118.79156 | 29872 ft | 525 kts | 334° |
| 2026-05-04 00:20 | 13.49598 | 118.75794 | 29873 ft | 525 kts | 334° |
| 2026-05-04 00:21 | 13.56177 | 118.72401 | 29870 ft | 525 kts | 334° |
| 2026-05-04 00:21 | 13.62685 | 118.69048 | 29872 ft | 526 kts | 334° |
| 2026-05-04 00:22 | 13.69244 | 118.65675 | 29870 ft | 526 kts | 334° |
| 2026-05-04 00:22 | 13.75779 | 118.62307 | 29871 ft | 525 kts | 334° |
| 2026-05-04 00:23 | 13.82315 | 118.58932 | 29872 ft | 526 kts | 334° |
| 2026-05-04 00:23 | 13.88871 | 118.55544 | 29870 ft | 526 kts | 334° |
| 2026-05-04 00:24 | 13.95418 | 118.52158 | 29872 ft | 526 kts | 334° |
| 2026-05-04 00:24 | 14.01948 | 118.48777 | 29873 ft | 526 kts | 334° |
| 2026-05-04 00:25 | 14.08509 | 118.45379 | 29871 ft | 526 kts | 334° |
| 2026-05-04 00:25 | 14.15053 | 118.41985 | 29872 ft | 526 kts | 334° |
| 2026-05-04 00:26 | 14.21599 | 118.38588 | 29872 ft | 526 kts | 334° |
| 2026-05-04 00:26 | 14.28146 | 118.35185 | 29870 ft | 526 kts | 334° |
| 2026-05-04 00:27 | 14.34690 | 118.31792 | 29871 ft | 526 kts | 334° |
| 2026-05-04 00:27 | 14.41219 | 118.28413 | 29875 ft | 526 kts | 334° |
| 2026-05-04 00:28 | 14.47770 | 118.25012 | 29872 ft | 527 kts | 334° |
| 2026-05-04 00:28 | 14.54320 | 118.21608 | 29871 ft | 526 kts | 334° |
| 2026-05-04 00:29 | 14.60868 | 118.18200 | 29869 ft | 526 kts | 334° |
| 2026-05-04 00:29 | 14.67418 | 118.14787 | 29870 ft | 527 kts | 334° |
| 2026-05-04 00:30 | 14.73974 | 118.11371 | 29871 ft | 527 kts | 334° |
| 2026-05-04 00:30 | 14.80535 | 118.07949 | 29872 ft | 527 kts | 334° |
| 2026-05-04 00:31 | 14.87103 | 118.04520 | 29873 ft | 527 kts | 334° |
| 2026-05-04 00:31 | 14.93644 | 118.01105 | 29870 ft | 527 kts | 334° |
| 2026-05-04 00:32 | 15.00193 | 117.97682 | 29874 ft | 527 kts | 334° |
| 2026-05-04 00:32 | 15.06736 | 117.94260 | 29872 ft | 527 kts | 334° |
| 2026-05-04 00:33 | 15.16543 | 117.89127 | 29872 ft | 527 kts | 334° |
| 2026-05-04 00:34 | 15.23090 | 117.85696 | 29872 ft | 527 kts | 334° |
| 2026-05-04 00:34 | 15.29649 | 117.82258 | 29873 ft | 527 kts | 334° |
| 2026-05-04 00:35 | 15.36213 | 117.78814 | 29872 ft | 527 kts | 334° |
| 2026-05-04 00:35 | 15.42735 | 117.75390 | 29873 ft | 527 kts | 334° |
| 2026-05-04 00:36 | 15.49284 | 117.71948 | 29872 ft | 527 kts | 334° |
| 2026-05-04 00:36 | 15.55830 | 117.68507 | 29873 ft | 527 kts | 334° |
| 2026-05-04 00:37 | 15.62369 | 117.65067 | 29872 ft | 527 kts | 334° |
| 2026-05-04 00:37 | 15.68936 | 117.61609 | 29873 ft | 527 kts | 334° |
| 2026-05-04 00:38 | 15.75474 | 117.58164 | 29873 ft | 527 kts | 334° |
| 2026-05-04 00:38 | 15.81982 | 117.54733 | 29872 ft | 526 kts | 334° |
| 2026-05-04 00:39 | 15.88536 | 117.51273 | 29873 ft | 527 kts | 334° |
| 2026-05-04 00:39 | 15.95080 | 117.47817 | 29873 ft | 527 kts | 334° |
| 2026-05-04 00:40 | 16.01636 | 117.44352 | 29872 ft | 527 kts | 334° |
| 2026-05-04 00:40 | 16.08171 | 117.40895 | 29872 ft | 527 kts | 334° |
| 2026-05-04 00:41 | 16.14690 | 117.37444 | 29872 ft | 527 kts | 334° |
| 2026-05-04 00:41 | 16.21249 | 117.33968 | 29872 ft | 527 kts | 333° |
| 2026-05-04 00:42 | 16.27765 | 117.30512 | 29872 ft | 527 kts | 333° |
| 2026-05-04 00:42 | 16.34318 | 117.27033 | 29873 ft | 526 kts | 333° |
| 2026-05-04 00:43 | 16.40847 | 117.23561 | 29872 ft | 527 kts | 333° |
| 2026-05-04 00:43 | 16.47398 | 117.20079 | 29872 ft | 527 kts | 333° |
| 2026-05-04 00:44 | 16.53904 | 117.16632 | 29872 ft | 527 kts | 333° |
| 2026-05-04 00:44 | 16.60440 | 117.13162 | 29873 ft | 527 kts | 333° |
| 2026-05-04 00:45 | 16.66983 | 117.09680 | 29872 ft | 526 kts | 333° |
| 2026-05-04 00:45 | 16.73534 | 117.06189 | 29873 ft | 527 kts | 333° |
| 2026-05-04 00:46 | 16.80044 | 117.02718 | 29873 ft | 527 kts | 333° |
| 2026-05-04 00:46 | 16.86591 | 116.99224 | 29873 ft | 526 kts | 333° |
| 2026-05-04 00:47 | 16.93093 | 116.95750 | 29873 ft | 527 kts | 333° |
| 2026-05-04 00:47 | 16.99638 | 116.92252 | 29873 ft | 527 kts | 333° |
| 2026-05-04 00:48 | 17.06165 | 116.88760 | 29873 ft | 527 kts | 333° |
| 2026-05-04 00:48 | 17.12711 | 116.85255 | 29872 ft | 527 kts | 333° |
| 2026-05-04 00:49 | 17.19217 | 116.81767 | 29872 ft | 527 kts | 333° |
| 2026-05-04 00:49 | 17.25769 | 116.78253 | 29872 ft | 527 kts | 333° |
| 2026-05-04 00:50 | 17.32269 | 116.74765 | 29873 ft | 527 kts | 333° |
| 2026-05-04 00:50 | 17.38816 | 116.71248 | 29872 ft | 527 kts | 333° |
| 2026-05-04 00:51 | 17.45319 | 116.67750 | 29873 ft | 527 kts | 333° |
| 2026-05-04 00:51 | 17.51854 | 116.64233 | 29873 ft | 527 kts | 333° |
| 2026-05-04 00:52 | 17.58382 | 116.60716 | 29872 ft | 527 kts | 333° |
| 2026-05-04 00:52 | 17.64934 | 116.57182 | 29872 ft | 526 kts | 333° |
| 2026-05-04 00:53 | 17.71431 | 116.53673 | 29872 ft | 527 kts | 333° |
| 2026-05-04 00:53 | 17.77973 | 116.50138 | 29873 ft | 527 kts | 333° |
| 2026-05-04 00:54 | 17.84485 | 116.46631 | 29873 ft | 527 kts | 333° |
| 2026-05-04 00:54 | 17.90995 | 116.43120 | 29873 ft | 527 kts | 333° |
| 2026-05-04 00:55 | 17.97502 | 116.39601 | 29873 ft | 527 kts | 333° |
| 2026-05-04 00:55 | 18.04034 | 116.36064 | 29872 ft | 527 kts | 333° |
| 2026-05-04 00:56 | 18.10562 | 116.32525 | 29872 ft | 527 kts | 333° |
| 2026-05-04 00:56 | 18.17090 | 116.28983 | 29873 ft | 527 kts | 333° |
| 2026-05-04 00:57 | 18.23606 | 116.25445 | 29873 ft | 527 kts | 333° |
| 2026-05-04 00:57 | 18.30132 | 116.21899 | 29873 ft | 527 kts | 333° |
| 2026-05-04 00:58 | 18.36641 | 116.18358 | 29873 ft | 527 kts | 333° |
| 2026-05-04 00:58 | 18.43152 | 116.14813 | 29873 ft | 527 kts | 333° |
| 2026-05-04 00:59 | 18.49660 | 116.11267 | 29873 ft | 527 kts | 333° |
| 2026-05-04 00:59 | 18.56161 | 116.07721 | 29873 ft | 526 kts | 333° |
| 2026-05-04 01:00 | 18.62657 | 116.04175 | 29870 ft | 526 kts | 333° |
| 2026-05-04 01:00 | 18.69150 | 116.00626 | 29870 ft | 526 kts | 333° |
| 2026-05-04 01:01 | 18.75692 | 115.97047 | 29871 ft | 526 kts | 333° |
| 2026-05-04 01:01 | 18.82174 | 115.93494 | 29868 ft | 526 kts | 333° |
| 2026-05-04 01:02 | 18.88701 | 115.89915 | 29871 ft | 526 kts | 333° |
| 2026-05-04 01:02 | 18.95026 | 115.86019 | 29867 ft | 526 kts | 323° |
| 2026-05-04 01:03 | 19.00366 | 115.80790 | 29867 ft | 527 kts | 310° |
| 2026-05-04 01:03 | 19.04533 | 115.74454 | 29872 ft | 527 kts | 301° |
| 2026-05-04 01:04 | 19.08353 | 115.67831 | 29872 ft | 527 kts | 301° |
| 2026-05-04 01:04 | 19.12149 | 115.61251 | 29870 ft | 527 kts | 301° |
| 2026-05-04 01:05 | 19.15997 | 115.54625 | 29868 ft | 527 kts | 301° |
| 2026-05-04 01:05 | 19.19816 | 115.48058 | 29870 ft | 526 kts | 301° |
| 2026-05-04 01:06 | 19.23628 | 115.41503 | 29871 ft | 526 kts | 301° |
| 2026-05-04 01:06 | 19.27455 | 115.34905 | 29870 ft | 526 kts | 301° |
| 2026-05-04 01:07 | 19.31293 | 115.28291 | 29872 ft | 526 kts | 301° |
| 2026-05-04 01:07 | 19.35115 | 115.21719 | 29870 ft | 526 kts | 301° |
| 2026-05-04 01:08 | 19.38932 | 115.15140 | 29869 ft | 526 kts | 301° |
| 2026-05-04 01:08 | 19.42748 | 115.08546 | 29869 ft | 527 kts | 301° |
| 2026-05-04 01:09 | 19.46587 | 115.01901 | 29871 ft | 527 kts | 301° |
| 2026-05-04 01:09 | 19.50394 | 114.95305 | 29872 ft | 527 kts | 301° |
| 2026-05-04 01:10 | 19.54210 | 114.88683 | 29872 ft | 527 kts | 301° |
| 2026-05-04 01:10 | 19.58010 | 114.82076 | 29872 ft | 527 kts | 301° |
| 2026-05-04 01:11 | 19.61811 | 114.75461 | 29872 ft | 527 kts | 301° |
| 2026-05-04 01:11 | 19.66314 | 114.69345 | 29867 ft | 526 kts | 319° |
| 2026-05-04 01:11 | 19.69257 | 114.67114 | 29871 ft | 525 kts | 330° |
| 2026-05-04 01:12 | 19.72567 | 114.65503 | 29871 ft | 524 kts | 342° |
| 2026-05-04 01:12 | 19.76136 | 114.64579 | 29872 ft | 523 kts | 353° |
| 2026-05-04 01:12 | 19.79776 | 114.64218 | 29880 ft | 522 kts | 356° |
| 2026-05-04 01:13 | 19.86982 | 114.63658 | 29873 ft | 522 kts | 356° |
| 2026-05-04 01:13 | 19.94251 | 114.63077 | 29872 ft | 522 kts | 356° |
| 2026-05-04 01:14 | 20.01529 | 114.62470 | 29872 ft | 522 kts | 356° |
| 2026-05-04 01:14 | 20.08780 | 114.61855 | 29872 ft | 522 kts | 356° |
| 2026-05-04 01:15 | 20.16021 | 114.61237 | 29872 ft | 522 kts | 356° |
| 2026-05-04 01:15 | 20.23283 | 114.60616 | 29872 ft | 522 kts | 356° |
| 2026-05-04 01:16 | 20.30520 | 114.59995 | 29872 ft | 522 kts | 356° |
| 2026-05-04 01:16 | 20.37773 | 114.59374 | 29872 ft | 522 kts | 356° |
| 2026-05-04 01:17 | 20.45010 | 114.58753 | 29872 ft | 522 kts | 356° |
| 2026-05-04 01:17 | 20.52269 | 114.58128 | 29872 ft | 522 kts | 356° |
| 2026-05-04 01:18 | 20.59557 | 114.57501 | 29872 ft | 522 kts | 356° |
| 2026-05-04 01:18 | 20.66785 | 114.56879 | 29872 ft | 522 kts | 356° |
| 2026-05-04 01:19 | 20.73647 | 114.56284 | 29460 ft | 500 kts | 356° |
| 2026-05-04 01:19 | 20.77332 | 114.55961 | 28452 ft | 485 kts | 356° |
| 2026-05-04 01:19 | 20.80708 | 114.55666 | 27062 ft | 483 kts | 357° |
| 2026-05-04 01:19 | 20.84036 | 114.55409 | 25431 ft | 484 kts | 359° |
| 2026-05-04 01:20 | 20.87364 | 114.55342 | 24279 ft | 473 kts | 2° |
| 2026-05-04 01:20 | 20.90595 | 114.55358 | 23341 ft | 459 kts | 2° |
| 2026-05-04 01:20 | 20.93742 | 114.55389 | 22274 ft | 450 kts | 2° |
| 2026-05-04 01:20 | 20.96859 | 114.55422 | 21159 ft | 443 kts | 2° |
| 2026-05-04 01:21 | 20.99906 | 114.55454 | 20042 ft | 436 kts | 3° |
| 2026-05-04 01:21 | 21.02913 | 114.55483 | 18929 ft | 430 kts | 3° |
| 2026-05-04 01:21 | 21.05866 | 114.55512 | 17831 ft | 424 kts | 3° |
| 2026-05-04 01:21 | 21.08781 | 114.55540 | 16748 ft | 417 kts | 3° |
| 2026-05-04 01:22 | 21.11634 | 114.55569 | 15687 ft | 411 kts | 3° |
| 2026-05-04 01:22 | 21.14187 | 114.55594 | 14739 ft | 406 kts | 3° |
| 2026-05-04 01:22 | 21.16959 | 114.55621 | 13881 ft | 399 kts | 3° |
| 2026-05-04 01:22 | 21.19565 | 114.55645 | 13305 ft | 395 kts | 3° |
| 2026-05-04 01:23 | 21.22344 | 114.55669 | 12933 ft | 372 kts | 3° |
| 2026-05-04 01:23 | 21.24866 | 114.55690 | 12892 ft | 350 kts | 3° |
| 2026-05-04 01:23 | 21.27370 | 114.55711 | 12897 ft | 349 kts | 3° |
| 2026-05-04 01:23 | 21.29799 | 114.55736 | 12880 ft | 349 kts | 3° |
| 2026-05-04 01:24 | 21.32217 | 114.55761 | 12873 ft | 349 kts | 3° |
| 2026-05-04 01:24 | 21.34673 | 114.55783 | 12870 ft | 349 kts | 3° |
| 2026-05-04 01:24 | 21.37099 | 114.55806 | 12868 ft | 349 kts | 3° |
| 2026-05-04 01:24 | 21.39562 | 114.55829 | 12867 ft | 349 kts | 3° |
| 2026-05-04 01:25 | 21.42005 | 114.55851 | 12867 ft | 349 kts | 3° |
| 2026-05-04 01:25 | 21.44427 | 114.55874 | 12868 ft | 349 kts | 3° |
| 2026-05-04 01:25 | 21.46888 | 114.55820 | 12867 ft | 350 kts | 358° |
| 2026-05-04 01:25 | 21.49319 | 114.55494 | 12867 ft | 352 kts | 352° |
| 2026-05-04 01:26 | 21.51710 | 114.54883 | 12867 ft | 353 kts | 346° |
| 2026-05-04 01:26 | 21.54050 | 114.54092 | 12868 ft | 354 kts | 344° |
| 2026-05-04 01:26 | 21.56426 | 114.53250 | 12867 ft | 354 kts | 344° |
| 2026-05-04 01:26 | 21.58758 | 114.52424 | 12867 ft | 354 kts | 343° |
| 2026-05-04 01:27 | 21.60842 | 114.51473 | 12862 ft | 356 kts | 332° |
| 2026-05-04 01:27 | 21.62901 | 114.49854 | 12865 ft | 359 kts | 317° |
| 2026-05-04 01:27 | 21.64635 | 114.47924 | 12870 ft | 359 kts | 314° |
| 2026-05-04 01:27 | 21.66329 | 114.45923 | 12869 ft | 359 kts | 313° |
| 2026-05-04 01:28 | 21.68032 | 114.43903 | 12867 ft | 359 kts | 313° |
| 2026-05-04 01:28 | 21.69725 | 114.41911 | 12868 ft | 359 kts | 314° |
| 2026-05-04 01:28 | 21.71424 | 114.39927 | 12867 ft | 359 kts | 314° |
| 2026-05-04 01:28 | 21.73098 | 114.37983 | 12836 ft | 350 kts | 314° |
| 2026-05-04 01:29 | 21.74704 | 114.36117 | 12503 ft | 346 kts | 314° |
| 2026-05-04 01:29 | 21.76373 | 114.34184 | 12669 ft | 351 kts | 314° |
| 2026-05-04 01:29 | 21.78046 | 114.32246 | 12973 ft | 348 kts | 314° |
| 2026-05-04 01:29 | 21.79663 | 114.30370 | 12976 ft | 337 kts | 314° |
| 2026-05-04 01:30 | 21.81214 | 114.28570 | 12749 ft | 324 kts | 314° |
| 2026-05-04 01:30 | 21.82738 | 114.26800 | 12272 ft | 317 kts | 314° |
| 2026-05-04 01:30 | 21.84273 | 114.25017 | 11666 ft | 314 kts | 314° |
| 2026-05-04 01:30 | 21.85750 | 114.23302 | 11079 ft | 312 kts | 314° |
| 2026-05-04 01:31 | 21.87244 | 114.21570 | 10500 ft | 309 kts | 314° |
| 2026-05-04 01:31 | 21.88653 | 114.19888 | 9947 ft | 306 kts | 310° |
| 2026-05-04 01:31 | 21.89896 | 114.18019 | 9375 ft | 305 kts | 302° |
| 2026-05-04 01:31 | 21.90961 | 114.16035 | 8821 ft | 302 kts | 300° |
| 2026-05-04 01:32 | 21.91971 | 114.14064 | 8280 ft | 299 kts | 300° |
| 2026-05-04 01:32 | 21.92961 | 114.12118 | 7731 ft | 297 kts | 300° |
| 2026-05-04 01:32 | 21.93966 | 114.10155 | 7175 ft | 294 kts | 301° |
| 2026-05-04 01:32 | 21.94948 | 114.08240 | 6628 ft | 292 kts | 301° |
| 2026-05-04 01:33 | 21.95932 | 114.06329 | 6091 ft | 289 kts | 301° |
| 2026-05-04 01:33 | 21.96914 | 114.04427 | 5560 ft | 287 kts | 301° |
| 2026-05-04 01:33 | 21.97880 | 114.02553 | 5029 ft | 284 kts | 301° |
| 2026-05-04 01:33 | 21.98858 | 114.00657 | 4492 ft | 282 kts | 301° |
| 2026-05-04 01:34 | 21.99802 | 113.98827 | 3970 ft | 280 kts | 301° |
| 2026-05-04 01:34 | 22.00756 | 113.96975 | 3507 ft | 279 kts | 301° |
| 2026-05-04 01:34 | 22.01713 | 113.95119 | 3287 ft | 277 kts | 301° |
| 2026-05-04 01:34 | 22.02657 | 113.93286 | 3048 ft | 277 kts | 301° |
| 2026-05-04 01:35 | 22.03573 | 113.91506 | 2911 ft | 273 kts | 301° |
| 2026-05-04 01:35 | 22.04458 | 113.89788 | 2908 ft | 276 kts | 301° |
| 2026-05-04 01:35 | 22.05356 | 113.88044 | 2906 ft | 276 kts | 301° |
| 2026-05-04 01:35 | 22.06307 | 113.86198 | 2906 ft | 276 kts | 301° |
| 2026-05-04 01:36 | 22.07254 | 113.84354 | 2906 ft | 276 kts | 301° |
| 2026-05-04 01:36 | 22.08199 | 113.82516 | 2905 ft | 276 kts | 301° |
| 2026-05-04 01:36 | 22.09132 | 113.80701 | 2906 ft | 276 kts | 301° |
| 2026-05-04 01:36 | 22.10067 | 113.78891 | 2905 ft | 276 kts | 303° |
| 2026-05-04 01:37 | 22.11188 | 113.77441 | 2896 ft | 271 kts | 324° |
| 2026-05-04 01:37 | 22.12795 | 113.76438 | 2908 ft | 269 kts | 338° |
| 2026-05-04 01:37 | 22.14525 | 113.75607 | 2907 ft | 268 kts | 340° |
| 2026-05-04 01:37 | 22.16256 | 113.74793 | 2906 ft | 268 kts | 339° |
| 2026-05-04 01:38 | 22.17990 | 113.73959 | 2905 ft | 268 kts | 339° |
| 2026-05-04 01:38 | 22.19730 | 113.73190 | 2897 ft | 266 kts | 350° |
| 2026-05-04 01:38 | 22.21540 | 113.73309 | 2891 ft | 257 kts | 26° |
| 2026-05-04 01:38 | 22.23047 | 113.74327 | 2909 ft | 256 kts | 38° |
| 2026-05-04 01:39 | 22.24500 | 113.75462 | 2881 ft | 251 kts | 43° |
| 2026-05-04 01:39 | 22.25515 | 113.76968 | 2757 ft | 243 kts | 66° |
| 2026-05-04 01:39 | 22.26102 | 113.78666 | 2629 ft | 238 kts | 72° |
| 2026-05-04 01:39 | 22.26644 | 113.80401 | 2240 ft | 246 kts | 72° |
| 2026-05-04 01:40 | 22.27207 | 113.82201 | 1808 ft | 255 kts | 72° |
| 2026-05-04 01:40 | 22.27794 | 113.84043 | 1347 ft | 263 kts | 71° |
| 2026-05-04 01:40 | 22.28396 | 113.85910 | 851 ft | 259 kts | 72° |
| 2026-05-04 01:40 | 22.28945 | 113.87656 | 425 ft | 252 kts | 72° |
| 2026-05-04 01:41 | 22.29499 | 113.89412 | 137 ft | 241 kts | 71° |
| 2026-05-04 01:41 | 22.30028 | 113.91062 | 43 ft | 218 kts | 72° |
| 2026-05-04 01:41 | 22.30449 | 113.92380 | 43 ft | 130 kts | 72° |
| 2026-05-04 01:41 | 22.30616 | 113.92922 | 44 ft | 42 kts | 66° |
| 2026-05-04 01:42 | 22.30754 | 113.93144 | 44 ft | 22 kts | 27° |
| 2026-05-04 01:42 | 22.30858 | 113.93213 | 44 ft | 0 kts | 12° |
| 2026-05-04 01:42 | 22.30863 | 113.93214 | 44 ft | 1 kts | 13° |
| 2026-05-04 01:42 | 22.30899 | 113.93232 | 44 ft | 7 kts | 41° |
| 2026-05-04 01:43 | 22.30932 | 113.93276 | 44 ft | 8 kts | 62° |
| 2026-05-04 01:43 | 22.30961 | 113.93336 | 44 ft | 9 kts | 62° |
| 2026-05-04 01:43 | 22.31002 | 113.93394 | 44 ft | 10 kts | 39° |
| 2026-05-04 01:43 | 22.31067 | 113.93410 | 44 ft | 9 kts | 351° |
| 2026-05-04 01:44 | 22.31138 | 113.93388 | 44 ft | 10 kts | 342° |
| 2026-05-04 01:44 | 22.31210 | 113.93361 | 44 ft | 11 kts | 340° |
| 2026-05-04 01:44 | 22.31275 | 113.93311 | 43 ft | 11 kts | 301° |
| 2026-05-04 01:44 | 22.31279 | 113.93223 | 43 ft | 12 kts | 255° |
| 2026-05-04 01:45 | 22.31250 | 113.93130 | 43 ft | 13 kts | 251° |
| 2026-05-04 01:45 | 22.31221 | 113.93043 | 43 ft | 14 kts | 251° |
| 2026-05-04 01:45 | 22.31099 | 113.92851 | 43 ft | 15 kts | 208° |
| 2026-05-04 01:46 | 22.31002 | 113.92804 | 43 ft | 15 kts | 208° |
| 2026-05-04 01:46 | 22.30904 | 113.92752 | 43 ft | 15 kts | 206° |
| 2026-05-04 01:46 | 22.30826 | 113.92675 | 43 ft | 15 kts | 244° |
| 2026-05-04 01:46 | 22.30789 | 113.92564 | 43 ft | 15 kts | 251° |
| 2026-05-04 01:47 | 22.30752 | 113.92450 | 43 ft | 16 kts | 251° |
| 2026-05-04 01:47 | 22.30741 | 113.92414 | 42 ft | 0 kts | 251° |
| 2026-05-04 01:53 | 22.30736 | 113.92398 | 42 ft | 6 kts | 252° |
| 2026-05-04 01:54 | 22.30719 | 113.92346 | 42 ft | 7 kts | 251° |
| 2026-05-04 01:54 | 22.30717 | 113.92337 | 42 ft | 0 kts | 250° |
| 2026-05-04 01:54 | 22.30715 | 113.92334 | 42 ft | 2 kts | 250° |
| 2026-05-04 01:55 | 22.30701 | 113.92291 | 42 ft | 7 kts | 250° |
| 2026-05-04 01:55 | 22.30685 | 113.92242 | 42 ft | 5 kts | 252° |
| 2026-05-04 01:55 | 22.30684 | 113.92208 | 42 ft | 4 kts | 282° |
| 2026-05-04 01:55 | 22.30699 | 113.92175 | 42 ft | 4 kts | 309° |
| 2026-05-04 01:56 | 22.30730 | 113.92152 | 42 ft | 5 kts | 339° |
| 2026-05-04 01:56 | 22.30761 | 113.92141 | 42 ft | 3 kts | 339° |
| 2026-05-04 01:56 | 22.30775 | 113.92124 | 42 ft | 3 kts | 294° |
| 2026-05-04 01:56 | 22.30779 | 113.92100 | 42 ft | 2 kts | 261° |
| 2026-05-04 01:57 | 22.30776 | 113.92075 | 42 ft | 4 kts | 275° |
| 2026-05-04 01:57 | 22.30784 | 113.92050 | 42 ft | 4 kts | 300° |
| 2026-05-04 01:57 | 22.30801 | 113.92033 | 42 ft | 3 kts | 334° |
| 2026-05-04 01:57 | 22.30831 | 113.92023 | 42 ft | 6 kts | 340° |
| 2026-05-04 01:58 | 22.30860 | 113.92011 | 42 ft | 4 kts | 341° |
| 2026-05-04 01:58 | 22.30880 | 113.92004 | 42 ft | 2 kts | 341° |
| 2026-05-04 01:58 | 22.30902 | 113.91996 | 42 ft | 2 kts | 341° |
| 2026-05-04 01:58 | 22.30931 | 113.91985 | 42 ft | 3 kts | 341° |
| 2026-05-04 01:59 | 22.30949 | 113.91979 | 42 ft | 3 kts | 341° |
| 2026-05-04 01:59 | 22.30969 | 113.91971 | 42 ft | 3 kts | 341° |
| 2026-05-04 01:59 | 22.30990 | 113.91963 | 42 ft | 3 kts | 341° |
| 2026-05-04 01:59 | 22.31012 | 113.91951 | 42 ft | 4 kts | 320° |
| 2026-05-04 02:00 | 22.31024 | 113.91928 | 42 ft | 3 kts | 284° |
| 2026-05-04 02:00 | 22.31023 | 113.91898 | 42 ft | 4 kts | 254° |
| 2026-05-04 02:00 | 22.31012 | 113.91866 | 42 ft | 2 kts | 251° |
| 2026-05-04 02:00 | 22.31010 | 113.91860 | 42 ft | 0 kts | 250° |